Time;durP1;ratioP1;P1;durP2;ratioP2;P2;SDS_P1;SDS_P2;PMS_P1;PMS_P2;Temp;Humidity;BMP_temperature;BMP_pressure;BME280_temperature;BME280_humidity;BME280_pressure;Samples;Min_cycle;Max_cycle;Signal;HPM_P1;HPM_P2
2023/08/18 00:01:17;;;;;;;13.40;11.98;;;;;;;18.01;100.00;101861.88;4983776;28;20039;-71
2023/08/18 00:03:43;;;;;;;12.48;11.35;;;;;;;18.01;100.00;101861.88;4984010;28;20057;-71
2023/08/18 00:06:08;;;;;;;15.10;11.50;;;;;;;18.01;100.00;101855.72;4984050;28;20034;-71
2023/08/18 00:08:34;;;;;;;11.90;10.63;;;;;;;18.00;100.00;101854.00;4983123;28;20118;-71
2023/08/18 00:11:00;;;;;;;10.10;9.23;;;;;;;17.99;100.00;101855.81;4984044;28;20035;-72
2023/08/18 00:13:26;;;;;;;10.77;9.85;;;;;;;17.99;100.00;101852.28;4983276;28;20034;-72
2023/08/18 00:15:51;;;;;;;10.07;9.13;;;;;;;17.99;99.99;101858.44;4983214;28;20045;-72
2023/08/18 00:18:16;;;;;;;13.13;11.32;;;;;;;17.97;99.80;101854.16;4983238;28;20050;-71
2023/08/18 00:20:42;;;;;;;9.82;8.45;;;;;;;17.96;100.00;101852.47;4983771;28;20035;-71
2023/08/18 00:23:07;;;;;;;10.20;9.27;;;;;;;17.95;99.87;101848.94;4983702;28;20045;-71
2023/08/18 00:25:32;;;;;;;8.52;7.72;;;;;;;17.95;99.78;101843.63;4982968;28;20042;-71
2023/08/18 00:27:58;;;;;;;8.32;7.70;;;;;;;17.95;99.66;101846.28;4983356;28;20077;-72
2023/08/18 00:30:24;;;;;;;9.73;8.75;;;;;;;17.94;99.64;101836.66;4982795;28;20046;-72
2023/08/18 00:32:50;;;;;;;9.77;8.82;;;;;;;17.94;99.52;101831.34;4983144;28;20046;-71
2023/08/18 00:35:16;;;;;;;9.80;9.00;;;;;;;17.93;99.35;101839.38;4982543;28;20230;-71
2023/08/18 00:37:43;;;;;;;9.80;9.00;;;;;;;17.93;99.34;101837.56;4983785;28;20163;-71
2023/08/18 00:40:10;;;;;;;9.98;9.02;;;;;;;17.93;99.41;101836.72;4982592;28;20094;-72
2023/08/18 00:42:35;;;;;;;9.10;8.27;;;;;;;17.92;99.14;101840.31;4982798;28;20322;-72
2023/08/18 00:45:00;;;;;;;9.52;8.63;;;;;;;17.93;99.05;101834.06;4982741;28;20089;-72
2023/08/18 00:47:26;;;;;;;8.82;8.18;;;;;;;17.91;99.07;101839.47;4982671;28;20058;-72
2023/08/18 00:49:54;;;;;;;7.82;7.13;;;;;;;17.90;99.11;101827.16;4983131;28;20364;-71
2023/08/18 00:52:20;;;;;;;10.98;9.85;;;;;;;17.90;98.87;101828.94;4982819;28;20026;-71
2023/08/18 00:54:48;;;;;;;11.10;10.05;;;;;;;17.88;98.70;101836.97;4982441;28;20034;-71
2023/08/18 00:57:13;;;;;;;8.95;8.20;;;;;;;17.87;98.88;101832.63;4982612;28;20030;-71
2023/08/18 00:59:39;;;;;;;11.30;10.15;;;;;;;17.87;98.48;101826.47;4982320;28;20089;-71
2023/08/18 01:02:04;;;;;;;9.07;8.18;;;;;;;17.86;98.67;101819.47;4982310;28;20037;-71
2023/08/18 01:04:31;;;;;;;11.55;9.80;;;;;;;17.84;98.53;101815.09;4981635;28;20222;-71
2023/08/18 01:06:57;;;;;;;10.30;9.45;;;;;;;17.83;98.59;101815.16;4981858;28;20229;-71
2023/08/18 01:09:23;;;;;;;8.23;7.47;;;;;;;17.83;98.43;101823.13;4982692;28;20065;-71
2023/08/18 01:12:04;;;;;;;10.00;9.10;;;;;;;17.83;98.06;101821.31;4982815;28;20122;-71
2023/08/18 01:14:50;;;;;;;8.50;7.72;;;;;;;17.81;98.60;101820.53;4982303;28;20038;-71
2023/08/18 01:17:27;;;;;;;9.35;8.48;;;;;;;17.82;98.39;101822.22;4982551;28;20090;-71
2023/08/18 01:19:53;;;;;;;8.10;7.43;;;;;;;17.82;98.23;101829.34;4982415;28;20050;-71
2023/08/18 01:22:19;;;;;;;7.38;6.78;;;;;;;17.82;98.37;101832.84;4982282;28;20109;-71
2023/08/18 01:24:44;;;;;;;7.93;7.32;;;;;;;17.83;98.53;101831.06;4983015;28;20318;-72
2023/08/18 01:27:10;;;;;;;11.02;8.75;;;;;;;17.82;98.00;101826.69;4982745;28;20101;-72
2023/08/18 01:29:36;;;;;;;8.10;7.40;;;;;;;17.80;97.81;101826.78;4982391;28;20039;-71
2023/08/18 01:32:06;;;;;;;7.72;7.03;;;;;;;17.80;97.84;101826.78;4982477;28;20126;-71
2023/08/18 01:34:34;;;;;;;8.27;7.57;;;;;;;17.78;97.74;101826.00;4981761;28;20029;-71
2023/08/18 01:37:01;;;;;;;8.93;8.23;;;;;;;17.76;97.55;101825.25;4982161;28;20046;-71
2023/08/18 01:39:28;;;;;;;11.68;8.57;;;;;;;17.74;97.42;101821.81;4980932;28;20038;-71
2023/08/18 01:41:53;;;;;;;7.75;7.18;;;;;;;17.73;97.23;101806.00;4981768;28;20041;-71
2023/08/18 01:44:19;;;;;;;7.93;7.32;;;;;;;17.71;97.20;101806.09;4981100;28;20253;-71
2023/08/18 01:46:46;;;;;;;7.32;6.68;;;;;;;17.70;97.17;101806.16;4981708;28;20062;-71
2023/08/18 01:49:12;;;;;;;7.70;7.05;;;;;;;17.67;97.04;101801.91;4980922;28;20285;-71
2023/08/18 01:51:37;;;;;;;8.15;7.55;;;;;;;17.65;96.98;101793.19;4981184;28;20035;-71
2023/08/18 01:54:03;;;;;;;7.30;6.80;;;;;;;17.65;97.16;101799.34;4981880;28;20042;-71
2023/08/18 01:56:28;;;;;;;9.32;8.43;;;;;;;17.63;96.99;101805.69;4981346;28;20034;-71
2023/08/18 01:58:54;;;;;;;6.30;5.80;;;;;;;17.64;97.01;101802.06;4981608;28;20376;-71
2023/08/18 02:01:19;;;;;;;7.95;7.35;;;;;;;17.62;96.84;101801.31;4981576;28;20030;-71
2023/08/18 02:03:44;;;;;;;5.72;5.32;;;;;;;17.61;96.98;101799.63;4980723;28;20272;-71
2023/08/18 02:06:10;;;;;;;7.47;6.90;;;;;;;17.60;97.10;101803.19;4981558;28;20058;-71
2023/08/18 02:08:35;;;;;;;7.90;7.28;;;;;;;17.60;97.01;101801.38;4981456;28;20050;-71
2023/08/18 02:11:02;;;;;;;6.30;5.80;;;;;;;17.61;97.14;101794.31;4982028;28;20030;-72
2023/08/18 02:13:27;;;;;;;6.28;5.88;;;;;;;17.60;96.99;101795.25;4980972;28;20038;-72
2023/08/18 02:15:53;;;;;;;7.43;6.82;;;;;;;17.59;96.96;101789.09;4981503;28;20030;-72
2023/08/18 02:18:18;;;;;;;5.85;5.45;;;;;;;17.60;96.99;101788.13;4980958;28;20045;-72
2023/08/18 02:20:44;;;;;;;6.85;6.28;;;;;;;17.60;96.96;101782.00;4981245;28;20054;-72
2023/08/18 02:23:09;;;;;;;9.48;8.52;;;;;;;17.59;96.88;101783.81;4981524;28;20241;-71
2023/08/18 02:25:34;;;;;;;9.50;8.70;;;;;;;17.58;96.96;101781.22;4981421;28;20329;-71
2023/08/18 02:28:00;;;;;;;9.57;8.73;;;;;;;17.55;96.98;101776.94;4981580;28;20312;-71
2023/08/18 02:30:26;;;;;;;9.57;8.75;;;;;;;17.53;96.99;101776.16;4981646;28;20349;-72
2023/08/18 02:32:51;;;;;;;8.93;8.07;;;;;;;17.51;97.21;101780.69;4981685;28;20034;-72
2023/08/18 02:35:17;;;;;;;9.15;8.45;;;;;;;17.50;97.23;101781.66;4975403;28;20042;-72
2023/08/18 02:37:42;;;;;;;7.80;7.13;;;;;;;17.50;97.30;101778.13;4961579;29;20063;-72
2023/08/18 02:40:08;;;;;;;9.90;9.00;;;;;;;17.49;97.12;101773.78;4961132;29;20045;-74
2023/08/18 02:42:35;;;;;;;8.38;7.60;;;;;;;17.48;97.35;101772.06;4956121;29;20038;-75
2023/08/18 02:45:00;;;;;;;8.52;7.82;;;;;;;17.46;97.37;101762.44;4956146;29;20107;-75
2023/08/18 02:47:26;;;;;;;9.63;8.85;;;;;;;17.45;97.24;101757.22;4955496;29;20301;-75
2023/08/18 02:49:52;;;;;;;9.10;8.38;;;;;;;17.44;97.14;101755.50;4956202;29;20031;-75
2023/08/18 02:52:17;;;;;;;9.45;8.45;;;;;;;17.41;97.13;101756.53;4955789;28;20054;-75
2023/08/18 02:54:42;;;;;;;9.40;8.60;;;;;;;17.39;96.91;101755.78;4956041;28;20035;-75
2023/08/18 02:57:08;;;;;;;7.70;7.10;;;;;;;17.39;97.30;101753.13;4956043;29;20043;-75
2023/08/18 02:59:34;;;;;;;9.93;9.00;;;;;;;17.37;96.98;101755.00;4956087;29;20035;-75
2023/08/18 03:01:59;;;;;;;10.45;9.52;;;;;;;17.36;97.10;101749.78;4955758;29;20050;-75
2023/08/18 03:04:25;;;;;;;7.43;6.72;;;;;;;17.33;97.24;101756.09;4955110;28;20035;-76
2023/08/18 03:06:50;;;;;;;8.57;7.82;;;;;;;17.34;97.08;101754.31;4955963;29;20322;-76
2023/08/18 03:09:16;;;;;;;7.20;6.60;;;;;;;17.32;97.09;101751.75;4955607;29;20348;-76
2023/08/18 03:11:42;;;;;;;10.65;9.38;;;;;;;17.29;97.21;101748.41;4955720;29;20237;-76
2023/08/18 03:14:08;;;;;;;9.82;8.90;;;;;;;17.26;97.40;101747.63;4955722;29;20035;-76
2023/08/18 03:16:33;;;;;;;9.10;8.30;;;;;;;17.24;97.42;101741.56;4954052;29;20049;-75
2023/08/18 03:18:59;;;;;;;10.73;9.18;;;;;;;17.21;97.50;101735.59;4955647;29;20045;-76
2023/08/18 03:21:24;;;;;;;11.13;10.07;;;;;;;17.16;97.91;101743.78;4955441;29;20207;-75
2023/08/18 03:23:50;;;;;;;11.02;9.98;;;;;;;17.13;98.21;101741.28;4955823;29;20031;-75
2023/08/18 03:26:15;;;;;;;11.10;9.60;;;;;;;17.12;98.17;101744.88;4955729;29;20343;-75
2023/08/18 03:28:40;;;;;;;10.60;9.60;;;;;;;17.10;98.33;101744.13;4955125;28;20046;-76
2023/08/18 03:31:07;;;;;;;11.18;10.05;;;;;;;17.08;98.66;101736.25;4955725;29;20102;-76
2023/08/18 03:33:33;;;;;;;10.57;9.63;;;;;;;17.04;98.87;101750.56;4955126;29;20038;-75
2023/08/18 03:35:59;;;;;;;10.30;8.73;;;;;;;17.04;99.14;101749.72;4937875;29;20468;-75
2023/08/18 03:38:25;;;;;;;12.73;10.75;;;;;;;17.02;99.12;101749.78;4955123;29;20266;-75
2023/08/18 03:41:04;;;;;;;11.73;10.63;;;;;;;17.02;99.16;101746.31;4955620;29;20357;-75
2023/08/18 03:43:31;;;;;;;9.55;8.73;;;;;;;17.01;99.24;101748.09;4955178;29;20039;-75
2023/08/18 03:46:02;;;;;;;13.40;10.32;;;;;;;17.00;99.19;101735.78;4954110;28;20035;-75
2023/08/18 03:48:28;;;;;;;9.10;8.18;;;;;;;17.00;99.49;101742.88;4954594;29;20105;-75
2023/08/18 03:50:54;;;;;;;8.73;7.82;;;;;;;16.98;99.53;101735.03;4955044;28;20047;-75
2023/08/18 03:53:23;;;;;;;11.23;10.10;;;;;;;16.98;99.63;101736.81;4954916;29;20039;-75
2023/08/18 03:55:53;;;;;;;10.57;9.50;;;;;;;16.97;99.92;101735.97;4955651;29;20031;-75
2023/08/18 03:58:18;;;;;;;9.70;8.90;;;;;;;16.97;99.68;101735.09;4954966;28;20035;-76
2023/08/18 04:00:43;;;;;;;10.63;9.32;;;;;;;16.94;99.54;101732.66;4954161;29;20361;-75
2023/08/18 04:03:09;;;;;;;10.88;9.82;;;;;;;16.92;99.93;101738.00;4955110;28;20074;-75
2023/08/18 04:05:36;;;;;;;7.90;7.20;;;;;;;16.91;100.00;101736.28;4954639;29;20035;-75
2023/08/18 04:08:02;;;;;;;7.97;7.28;;;;;;;16.91;100.00;101733.66;4955310;29;20051;-75
2023/08/18 04:10:27;;;;;;;9.75;8.85;;;;;;;16.89;100.00;101732.88;4954612;29;20112;-75
2023/08/18 04:12:52;;;;;;;10.20;9.30;;;;;;;16.87;99.95;101732.09;4955390;29;20046;-75
2023/08/18 04:15:18;;;;;;;10.75;9.73;;;;;;;16.84;100.00;101743.69;4954534;29;20389;-76
2023/08/18 04:17:43;;;;;;;8.85;7.95;;;;;;;16.83;100.00;101755.22;4955249;29;20330;-76
2023/08/18 04:20:09;;;;;;;9.15;8.25;;;;;;;16.82;100.00;101750.81;4954585;29;20050;-76
2023/08/18 04:22:34;;;;;;;8.82;8.02;;;;;;;16.81;100.00;101759.72;4937573;29;20085;-76
2023/08/18 04:25:00;;;;;;;9.35;8.52;;;;;;;16.80;100.00;101754.50;4954866;29;20037;-75
2023/08/18 04:27:25;;;;;;;8.75;8.05;;;;;;;16.80;100.00;101751.84;4954505;28;20102;-76
2023/08/18 04:29:51;;;;;;;8.20;7.35;;;;;;;16.79;100.00;101753.66;4954999;29;20031;-75
2023/08/18 04:32:16;;;;;;;6.65;6.15;;;;;;;16.79;100.00;101761.59;4954419;29;20363;-75
2023/08/18 04:34:42;;;;;;;6.90;6.30;;;;;;;16.79;100.00;101753.66;4954543;29;20038;-75
2023/08/18 04:37:07;;;;;;;5.95;5.50;;;;;;;16.79;100.00;101750.13;4954812;29;20046;-75
2023/08/18 04:39:32;;;;;;;7.38;6.60;;;;;;;16.79;100.00;101748.34;4955350;28;20050;-75
2023/08/18 04:41:58;;;;;;;9.82;9.02;;;;;;;16.79;100.00;101752.78;4958356;29;20326;-75
2023/08/18 04:44:23;;;;;;;8.00;7.40;;;;;;;16.78;100.00;101753.72;4957674;29;20078;-75
2023/08/18 04:46:48;;;;;;;10.02;9.05;;;;;;;16.76;100.00;101751.16;4958421;28;20110;-75
2023/08/18 04:49:14;;;;;;;10.00;9.05;;;;;;;16.76;100.00;101747.66;4958173;29;20331;-75
2023/08/18 04:51:40;;;;;;;8.32;7.35;;;;;;;16.77;100.00;101755.53;4957975;28;20268;-75
2023/08/18 04:54:06;;;;;;;10.00;9.20;;;;;;;16.77;100.00;101747.59;4958126;29;20326;-75
2023/08/18 04:56:31;;;;;;;11.13;10.02;;;;;;;16.78;100.00;101756.38;4957970;29;20059;-75
2023/08/18 04:58:56;;;;;;;13.48;9.63;;;;;;;16.76;100.00;101751.16;4958032;29;20057;-75
2023/08/18 05:01:22;;;;;;;10.75;9.65;;;;;;;16.76;100.00;101751.16;4957557;29;20064;-75
2023/08/18 05:03:47;;;;;;;14.25;11.60;;;;;;;16.74;100.00;101755.66;4958154;28;20039;-75
2023/08/18 05:06:13;;;;;;;14.68;10.85;;;;;;;16.74;100.00;101753.03;4957785;29;20356;-75
2023/08/18 05:08:40;;;;;;;9.55;8.65;;;;;;;16.75;100.00;101748.59;4957295;28;20346;-75
2023/08/18 05:11:10;;;;;;;10.43;9.43;;;;;;;16.75;100.00;101745.94;4957838;28;20106;-75
2023/08/18 05:13:37;;;;;;;12.25;10.10;;;;;;;16.72;100.00;101739.03;4957543;29;20134;-75
2023/08/18 05:16:03;;;;;;;10.00;9.10;;;;;;;16.72;100.00;101744.31;4957879;29;20043;-75
2023/08/18 05:18:29;;;;;;;10.90;8.63;;;;;;;16.72;100.00;101741.69;4957131;29;20066;-75
2023/08/18 05:20:56;;;;;;;9.75;8.85;;;;;;;16.72;100.00;101738.16;4957356;29;20047;-75
2023/08/18 05:23:21;;;;;;;8.70;7.72;;;;;;;16.72;100.00;101739.03;4957512;29;20356;-75
2023/08/18 05:25:48;;;;;;;11.43;9.43;;;;;;;16.72;100.00;101739.03;4957681;29;20039;-76
2023/08/18 05:28:14;;;;;;;10.15;9.25;;;;;;;16.71;100.00;101729.38;4957608;29;20082;-75
2023/08/18 05:30:47;;;;;;;6.72;6.03;;;;;;;16.72;100.00;101730.22;4957248;29;20066;-75
2023/08/18 05:33:12;;;;;;;7.72;7.03;;;;;;;16.71;100.00;101729.38;4957197;29;20042;-75
2023/08/18 05:35:38;;;;;;;9.82;7.90;;;;;;;16.72;100.00;101735.50;4956795;29;20062;-75
2023/08/18 05:38:10;;;;;;;7.93;7.13;;;;;;;16.72;100.00;101739.03;4957627;29;20042;-75
2023/08/18 05:40:36;;;;;;;8.50;7.70;;;;;;;16.72;100.00;101735.50;4957407;28;20019;-75
2023/08/18 05:43:01;;;;;;;9.48;8.50;;;;;;;16.72;100.00;101738.16;4957534;29;20035;-75
2023/08/18 05:45:27;;;;;;;10.68;7.22;;;;;;;16.72;100.00;101730.22;4956832;29;20353;-75
2023/08/18 05:47:52;;;;;;;8.43;7.72;;;;;;;16.71;100.00;101729.38;4957697;29;20430;-75
2023/08/18 05:50:18;;;;;;;8.13;7.32;;;;;;;16.72;100.00;101724.94;4956876;29;20043;-75
2023/08/18 05:52:43;;;;;;;7.95;7.15;;;;;;;16.72;100.00;101724.94;4957371;28;20031;-75
2023/08/18 05:55:09;;;;;;;7.78;6.78;;;;;;;16.74;100.00;101725.72;4957080;29;20031;-75
2023/08/18 05:57:37;;;;;;;6.65;6.15;;;;;;;16.73;100.00;101727.50;4956678;28;20355;-75
2023/08/18 06:00:05;;;;;;;8.65;7.25;;;;;;;16.75;100.00;101716.84;4957148;29;20035;-75
2023/08/18 06:02:30;;;;;;;14.17;8.83;;;;;;;16.76;100.00;101722.06;4956433;28;20050;-75
2023/08/18 06:04:58;;;;;;;7.10;6.40;;;;;;;16.76;100.00;101730.00;4956775;28;20242;-75
2023/08/18 06:07:23;;;;;;;7.25;6.55;;;;;;;16.77;100.00;101729.06;4956220;29;20078;-75
2023/08/18 06:09:48;;;;;;;10.10;8.25;;;;;;;16.78;100.00;101733.41;4957078;28;20246;-75
2023/08/18 06:12:14;;;;;;;10.48;7.88;;;;;;;16.79;100.00;101732.47;4956747;29;20038;-75
2023/08/18 06:14:39;;;;;;;8.15;7.43;;;;;;;16.80;100.00;101723.59;4956510;29;20035;-75
2023/08/18 06:17:05;;;;;;;8.90;8.00;;;;;;;16.80;100.00;101720.94;4955147;29;20349;-75
2023/08/18 06:19:30;;;;;;;9.73;8.68;;;;;;;16.81;100.00;101733.25;4956062;29;20262;-75
2023/08/18 06:21:55;;;;;;;9.35;8.38;;;;;;;16.82;100.00;101734.94;4956636;29;20200;-76
2023/08/18 06:24:21;;;;;;;7.65;6.70;;;;;;;16.84;100.00;101721.69;4956116;29;20186;-76
2023/08/18 06:26:46;;;;;;;8.80;7.85;;;;;;;16.85;100.00;101716.31;4956723;29;20135;-75
2023/08/18 06:29:11;;;;;;;8.02;7.32;;;;;;;16.87;100.00;101718.88;4956506;29;20253;-75
2023/08/18 06:31:37;;;;;;;10.13;8.07;;;;;;;16.87;100.00;101713.59;4956034;29;20043;-75
2023/08/18 06:34:02;;;;;;;10.00;7.78;;;;;;;16.89;100.00;101717.00;4956273;29;20102;-75
2023/08/18 06:36:28;;;;;;;10.02;8.20;;;;;;;16.89;100.00;101724.94;4955604;29;20043;-75
2023/08/18 06:38:53;;;;;;;10.50;8.85;;;;;;;16.92;100.00;101729.19;4956287;29;20035;-75
2023/08/18 06:41:18;;;;;;;11.30;8.85;;;;;;;16.92;100.00;101723.91;4955690;29;20031;-75
2023/08/18 06:43:44;;;;;;;8.45;7.60;;;;;;;16.91;100.00;101733.66;4956412;29;20276;-75
2023/08/18 06:46:09;;;;;;;8.60;7.80;;;;;;;16.92;100.00;101731.84;4956162;28;20086;-75
2023/08/18 06:48:35;;;;;;;9.05;8.13;;;;;;;16.93;100.00;101731.75;4955766;29;20039;-75
2023/08/18 06:51:00;;;;;;;14.23;9.18;;;;;;;16.94;100.00;101733.50;4956012;29;20043;-76
2023/08/18 06:53:27;;;;;;;7.20;6.40;;;;;;;16.96;100.00;101742.19;4955566;29;20279;-75
2023/08/18 06:55:55;;;;;;;7.50;6.25;;;;;;;16.96;100.00;101736.91;4955024;29;20321;-75
2023/08/18 06:58:21;;;;;;;7.50;6.90;;;;;;;16.98;100.00;101737.69;4954585;28;20226;-75
2023/08/18 07:00:46;;;;;;;8.43;7.63;;;;;;;16.99;100.00;101736.75;4956034;29;20046;-75
2023/08/18 07:03:12;;;;;;;8.63;7.82;;;;;;;17.01;100.00;101732.22;4954826;28;20043;-75
2023/08/18 07:05:37;;;;;;;10.32;8.93;;;;;;;17.03;100.00;101730.34;4955468;29;20430;-75
2023/08/18 07:08:03;;;;;;;13.52;9.95;;;;;;;17.03;100.00;101733.00;4955527;29;20055;-75
2023/08/18 07:10:28;;;;;;;10.98;9.77;;;;;;;17.03;100.00;101730.34;4955368;28;20034;-75
2023/08/18 07:12:54;;;;;;;11.35;9.38;;;;;;;17.03;100.00;101730.34;4955976;29;20039;-75
2023/08/18 07:15:19;;;;;;;8.68;7.88;;;;;;;17.04;100.00;101724.09;4969067;28;20090;-75
2023/08/18 07:17:44;;;;;;;9.13;8.20;;;;;;;17.06;100.00;101716.97;4970548;28;20046;-75
2023/08/18 07:20:12;;;;;;;9.23;8.35;;;;;;;17.08;100.00;101720.38;4972614;28;20030;-76
2023/08/18 07:22:38;;;;;;;12.13;10.57;;;;;;;17.08;100.00;101717.72;4953792;28;20526;-76
2023/08/18 07:25:07;;;;;;;10.68;9.45;;;;;;;17.10;100.00;101714.13;4970913;28;20097;-75
2023/08/18 07:27:32;;;;;;;10.15;9.13;;;;;;;17.11;100.00;101713.19;4973022;28;20054;-75
2023/08/18 07:29:58;;;;;;;11.82;10.43;;;;;;;17.12;100.00;101714.91;4972935;28;20045;-75
2023/08/18 07:32:23;;;;;;;11.40;9.32;;;;;;;17.13;100.00;101714.81;4956555;28;20030;-75
2023/08/18 07:34:48;;;;;;;10.68;9.50;;;;;;;17.15;100.00;101710.28;4974192;28;20039;-75
2023/08/18 07:37:14;;;;;;;12.45;10.45;;;;;;;17.17;100.00;101703.16;4974785;28;20073;-75
2023/08/18 07:39:39;;;;;;;13.93;9.77;;;;;;;17.24;100.00;101714.22;4974785;28;20037;-75
2023/08/18 07:42:05;;;;;;;11.45;9.82;;;;;;;17.29;100.00;101703.41;4972585;28;20037;-75
2023/08/18 07:44:30;;;;;;;12.52;10.30;;;;;;;17.31;100.00;101699.72;4967248;28;20149;-75
2023/08/18 07:46:55;;;;;;;13.00;11.15;;;;;;;17.35;100.00;101700.41;4965818;28;20038;-75
2023/08/18 07:49:21;;;;;;;12.68;10.48;;;;;;;17.39;100.00;101700.16;4964924;28;20102;-76
2023/08/18 07:51:46;;;;;;;11.98;9.48;;;;;;;17.43;100.00;101699.03;4964478;28;20031;-76
2023/08/18 07:54:12;;;;;;;11.85;10.02;;;;;;;17.50;100.00;101696.03;4965769;28;20094;-76
2023/08/18 07:56:37;;;;;;;12.88;10.40;;;;;;;17.55;100.00;101689.53;4962499;28;20360;-76
2023/08/18 07:59:03;;;;;;;16.90;11.70;;;;;;;17.59;100.00;101691.09;4965838;28;20031;-75
2023/08/18 08:01:29;;;;;;;14.25;10.88;;;;;;;17.62;100.00;101692.72;4971624;28;20267;-75
2023/08/18 08:03:55;;;;;;;13.15;10.55;;;;;;;17.65;100.00;101698.69;4975145;28;20049;-75
2023/08/18 08:06:21;;;;;;;15.00;11.10;;;;;;;17.70;100.00;101702.84;4969292;28;20101;-75
2023/08/18 08:08:46;;;;;;;11.77;9.52;;;;;;;17.74;100.00;101697.31;4954773;28;20345;-75
2023/08/18 08:11:12;;;;;;;12.93;10.55;;;;;;;17.77;100.00;101691.84;4974020;28;20065;-75
2023/08/18 08:13:38;;;;;;;14.82;12.02;;;;;;;17.80;100.00;101696.09;4973198;28;20026;-75
2023/08/18 08:16:03;;;;;;;14.55;11.18;;;;;;;17.84;100.00;101706.44;4976214;28;20043;-75
2023/08/18 08:18:29;;;;;;;19.17;12.63;;;;;;;17.89;100.00;101697.41;4975805;28;20046;-76
2023/08/18 08:20:54;;;;;;;13.38;10.98;;;;;;;17.95;100.00;101697.88;4977857;28;20037;-75
2023/08/18 08:23:20;;;;;;;16.85;11.40;;;;;;;18.03;100.00;101692.16;4977561;28;20358;-75
2023/08/18 08:25:47;;;;;;;20.95;13.75;;;;;;;18.07;100.00;101688.38;4977853;28;20326;-75
2023/08/18 08:28:13;;;;;;;11.30;10.07;;;;;;;18.10;100.00;101692.63;4977674;28;20089;-75
2023/08/18 08:30:41;;;;;;;30.17;13.70;;;;;;;18.13;100.00;101692.47;4977365;28;20061;-77
2023/08/18 08:33:08;;;;;;;19.00;11.50;;;;;;;18.15;100.00;101703.81;4977992;28;20030;-77
2023/08/18 08:35:33;;;;;;;16.90;13.13;;;;;;;18.20;100.00;101699.09;4977716;28;20077;-77
2023/08/18 08:37:59;;;;;;;21.63;14.30;;;;;;;18.22;100.00;101708.66;4971013;28;20043;-77
2023/08/18 08:40:25;;;;;;;23.50;14.30;;;;;;;18.23;100.00;101713.03;4977533;28;20093;-77
2023/08/18 08:42:53;;;;;;;24.90;15.98;;;;;;;18.26;100.00;101708.50;4977920;28;20066;-77
2023/08/18 08:45:19;;;;;;;31.08;16.45;;;;;;;18.27;100.00;101707.56;4977465;28;20097;-77
2023/08/18 08:47:45;;;;;;;29.92;18.20;;;;;;;18.28;100.00;101706.59;4966365;28;20039;-77
2023/08/18 08:50:13;;;;;;;33.80;19.00;;;;;;;18.31;100.00;101722.34;4967750;28;20023;-77
2023/08/18 08:52:39;;;;;;;25.97;16.20;;;;;;;18.36;100.00;101717.63;4966471;28;20093;-77
2023/08/18 08:55:06;;;;;;;34.10;19.45;;;;;;;18.40;100.00;101721.78;4966321;28;20030;-77
2023/08/18 08:57:32;;;;;;;47.65;23.35;;;;;;;18.42;100.00;101726.03;4967672;28;20050;-77
2023/08/18 09:00:00;;;;;;;33.33;17.75;;;;;;;18.45;100.00;101727.66;4966267;28;20434;-77
2023/08/18 09:02:25;;;;;;;27.73;16.13;;;;;;;18.47;100.00;101723.13;4965610;28;20083;-77
2023/08/18 09:04:51;;;;;;;18.38;13.75;;;;;;;18.51;100.00;101721.16;4960090;28;20037;-77
2023/08/18 09:07:17;;;;;;;25.35;16.50;;;;;;;18.53;100.00;101717.44;4963674;28;20125;-77
2023/08/18 09:09:43;;;;;;;27.80;17.27;;;;;;;18.57;100.00;101718.09;4966927;28;20086;-77
2023/08/18 09:12:10;;;;;;;34.85;18.08;;;;;;;18.59;100.00;101722.41;4971339;28;20296;-77
2023/08/18 09:14:40;;;;;;;21.42;14.27;;;;;;;18.61;100.00;101724.97;4964962;28;20339;-77
2023/08/18 09:17:06;;;;;;;26.70;15.85;;;;;;;18.64;100.00;101723.91;4941638;28;20041;-77
2023/08/18 09:19:32;;;;;;;27.10;16.48;;;;;;;18.66;100.00;101724.66;4939220;28;20026;-77
2023/08/18 09:21:59;;;;;;;20.40;14.77;;;;;;;18.69;100.00;101720.03;4937883;28;20291;-77
2023/08/18 09:24:25;;;;;;;24.23;16.00;;;;;;;18.73;100.00;101721.53;4931857;28;20031;-77
2023/08/18 09:26:51;;;;;;;22.50;15.85;;;;;;;18.76;100.00;101716.06;4940966;28;20086;-77
2023/08/18 09:29:16;;;;;;;22.65;13.70;;;;;;;18.77;100.00;101707.16;4966968;28;20031;-77
2023/08/18 09:31:45;;;;;;;19.42;14.45;;;;;;;18.80;100.00;101711.41;4959033;28;20311;-77
2023/08/18 09:34:18;;;;;;;19.88;14.60;;;;;;;18.84;100.00;101706.81;4935650;28;20229;-77
2023/08/18 09:36:51;;;;;;;20.40;15.00;;;;;;;18.86;100.00;101694.28;4943354;28;20101;-77
2023/08/18 09:39:16;;;;;;;24.65;16.42;;;;;;;18.89;100.00;101702.06;4965669;28;20042;-77
2023/08/18 09:41:45;;;;;;;19.73;13.77;;;;;;;18.94;100.00;101698.19;4963323;28;20360;-77
2023/08/18 09:44:10;;;;;;;19.05;14.57;;;;;;;18.98;100.00;101702.34;4975213;28;20066;-77
2023/08/18 09:46:37;;;;;;;20.45;14.75;;;;;;;19.04;100.00;101705.56;4971528;28;20054;-77
2023/08/18 09:49:07;;;;;;;24.23;16.60;;;;;;;19.09;100.00;101706.13;4974941;28;20031;-77
2023/08/18 09:51:33;;;;;;;22.05;15.85;;;;;;;19.12;100.00;101712.09;4969726;28;20081;-77
2023/08/18 09:54:02;;;;;;;18.75;14.48;;;;;;;19.17;99.96;101710.00;4974033;28;20392;-77
2023/08/18 09:56:31;;;;;;;18.20;13.68;;;;;;;19.21;99.36;101704.47;4969563;28;20027;-77
2023/08/18 09:59:12;;;;;;;21.15;14.45;;;;;;;19.22;99.18;101699.09;4942705;28;20038;-77
2023/08/18 10:01:38;;;;;;;23.23;16.83;;;;;;;19.24;99.21;101683.06;4973419;28;20253;-77
2023/08/18 10:04:05;;;;;;;20.10;14.95;;;;;;;19.26;99.43;101676.69;4975064;28;20062;-77
2023/08/18 10:06:33;;;;;;;23.00;16.20;;;;;;;19.29;99.82;101679.16;4967930;28;20042;-77
2023/08/18 10:09:00;;;;;;;34.07;18.33;;;;;;;19.36;100.00;101683.13;4966472;28;20090;-77
2023/08/18 10:11:26;;;;;;;23.27;17.60;;;;;;;19.40;99.51;101678.47;4967476;28;20282;-77
2023/08/18 10:13:51;;;;;;;28.13;18.52;;;;;;;19.41;99.09;101682.84;4967717;28;20062;-77
2023/08/18 10:16:18;;;;;;;27.60;16.63;;;;;;;19.43;99.16;101683.59;4974315;28;20421;-77
2023/08/18 10:18:43;;;;;;;23.25;17.38;;;;;;;19.42;98.94;101681.03;4979265;28;20057;-77
2023/08/18 10:21:10;;;;;;;20.77;15.88;;;;;;;19.43;98.96;101680.06;4972035;28;20338;-77
2023/08/18 10:23:40;;;;;;;24.77;17.00;;;;;;;19.45;98.74;101670.22;4972840;28;20844;-77
2023/08/18 10:26:05;;;;;;;24.05;16.13;;;;;;;19.45;98.56;101662.25;4973152;28;20034;-77
2023/08/18 10:28:33;;;;;;;24.65;18.00;;;;;;;19.47;98.95;101657.69;4971659;28;20046;-77
2023/08/18 10:31:05;;;;;;;30.63;18.17;;;;;;;19.53;98.88;101657.25;4974228;28;20045;-77
2023/08/18 10:33:45;;;;;;;21.38;15.88;;;;;;;19.57;99.06;101653.44;4970683;28;20302;-77
2023/08/18 10:36:21;;;;;;;18.50;14.45;;;;;;;19.60;99.14;101653.25;4956484;28;20035;-77
2023/08/18 10:38:47;;;;;;;17.05;13.18;;;;;;;19.64;99.47;101645.94;4966676;28;20316;-77
2023/08/18 10:41:12;;;;;;;23.17;15.75;;;;;;;19.69;99.49;101646.47;4978344;28;20117;-77
2023/08/18 10:43:57;;;;;;;26.55;17.90;;;;;;;19.74;99.39;101645.25;4972694;28;20065;-77
2023/08/18 10:46:36;;;;;;;29.13;18.67;;;;;;;19.78;99.21;101650.38;4973017;28;20035;-77
2023/08/18 10:49:02;;;;;;;22.70;16.67;;;;;;;19.80;99.45;101659.94;4974855;28;20042;-77
2023/08/18 10:51:28;;;;;;;27.33;17.25;;;;;;;19.84;99.06;101660.59;4970759;28;20042;-77
2023/08/18 10:53:54;;;;;;;22.38;15.55;;;;;;;19.89;99.46;101647.84;4978307;28;20423;-77
2023/08/18 10:56:19;;;;;;;30.38;19.90;;;;;;;19.94;99.16;101643.91;4975052;28;20031;-77
2023/08/18 10:58:44;;;;;;;22.35;15.25;;;;;;;19.98;99.23;101639.25;4974364;28;20049;-77
2023/08/18 11:01:11;;;;;;;32.65;20.60;;;;;;;20.03;98.99;101637.13;4973644;28;20127;-77
2023/08/18 11:03:38;;;;;;;27.80;17.70;;;;;;;20.07;99.10;101633.28;4968809;28;20353;-77
2023/08/18 11:06:04;;;;;;;24.17;16.10;;;;;;;20.13;99.33;101629.38;4973216;28;20094;-77
2023/08/18 11:08:30;;;;;;;30.00;17.92;;;;;;;20.18;99.31;101621.94;4978350;28;20226;-77
2023/08/18 11:10:55;;;;;;;30.63;19.58;;;;;;;20.25;99.32;101625.03;4993113;28;20117;-77